sensor_id;sensor_type;location;lat;lon;timestamp;P1;durP1;ratioP1;P2;durP2;ratioP2
23814;SDS011;12088;53.078;8.720;2023-03-18T00:01:27;0.77;;;0.77;;
23814;SDS011;12088;53.078;8.720;2023-03-18T00:03:52;0.87;;;0.87;;
23814;SDS011;12088;53.078;8.720;2023-03-18T00:06:18;1.23;;;1.13;;
23814;SDS011;12088;53.078;8.720;2023-03-18T00:08:46;0.90;;;0.90;;
23814;SDS011;12088;53.078;8.720;2023-03-18T00:11:13;2.07;;;0.87;;
23814;SDS011;12088;53.078;8.720;2023-03-18T00:13:40;2.27;;;0.80;;
23814;SDS011;12088;53.078;8.720;2023-03-18T00:16:06;0.63;;;0.63;;
23814;SDS011;12088;53.078;8.720;2023-03-18T00:18:35;0.57;;;0.53;;
23814;SDS011;12088;53.078;8.720;2023-03-18T00:21:01;1.00;;;1.00;;
23814;SDS011;12088;53.078;8.720;2023-03-18T00:23:27;0.50;;;0.50;;
23814;SDS011;12088;53.078;8.720;2023-03-18T00:25:54;1.73;;;0.73;;
23814;SDS011;12088;53.078;8.720;2023-03-18T00:28:21;1.17;;;1.07;;
23814;SDS011;12088;53.078;8.720;2023-03-18T00:30:48;0.60;;;0.60;;
23814;SDS011;12088;53.078;8.720;2023-03-18T00:33:13;0.50;;;0.50;;
23814;SDS011;12088;53.078;8.720;2023-03-18T00:35:40;0.70;;;0.70;;
23814;SDS011;12088;53.078;8.720;2023-03-18T00:38:06;0.90;;;0.80;;
23814;SDS011;12088;53.078;8.720;2023-03-18T00:40:33;1.30;;;1.30;;
23814;SDS011;12088;53.078;8.720;2023-03-18T00:43:17;0.67;;;0.60;;
23814;SDS011;12088;53.078;8.720;2023-03-18T00:45:47;1.37;;;1.27;;
23814;SDS011;12088;53.078;8.720;2023-03-18T00:48:14;0.53;;;0.53;;
23814;SDS011;12088;53.078;8.720;2023-03-18T00:50:41;0.90;;;0.90;;
23814;SDS011;12088;53.078;8.720;2023-03-18T00:53:08;1.27;;;1.17;;
23814;SDS011;12088;53.078;8.720;2023-03-18T00:55:34;1.03;;;0.90;;
23814;SDS011;12088;53.078;8.720;2023-03-18T00:58:00;0.60;;;0.60;;
23814;SDS011;12088;53.078;8.720;2023-03-18T01:00:25;1.20;;;1.07;;
23814;SDS011;12088;53.078;8.720;2023-03-18T01:02:51;0.77;;;0.73;;
23814;SDS011;12088;53.078;8.720;2023-03-18T01:05:17;0.53;;;0.53;;
23814;SDS011;12088;53.078;8.720;2023-03-18T01:07:42;0.80;;;0.80;;
23814;SDS011;12088;53.078;8.720;2023-03-18T01:10:08;2.13;;;1.97;;
23814;SDS011;12088;53.078;8.720;2023-03-18T01:12:38;1.10;;;1.10;;
23814;SDS011;12088;53.078;8.720;2023-03-18T01:15:05;1.37;;;0.90;;
23814;SDS011;12088;53.078;8.720;2023-03-18T01:17:35;0.93;;;0.93;;
23814;SDS011;12088;53.078;8.720;2023-03-18T01:20:00;0.83;;;0.80;;
23814;SDS011;12088;53.078;8.720;2023-03-18T01:22:27;4.03;;;2.40;;
23814;SDS011;12088;53.078;8.720;2023-03-18T01:24:53;0.73;;;0.73;;
23814;SDS011;12088;53.078;8.720;2023-03-18T01:27:19;0.80;;;0.80;;
23814;SDS011;12088;53.078;8.720;2023-03-18T01:29:45;1.10;;;1.00;;
23814;SDS011;12088;53.078;8.720;2023-03-18T01:32:11;2.23;;;1.20;;
23814;SDS011;12088;53.078;8.720;2023-03-18T01:34:37;0.60;;;0.60;;
23814;SDS011;12088;53.078;8.720;2023-03-18T01:37:02;0.83;;;0.83;;
23814;SDS011;12088;53.078;8.720;2023-03-18T01:39:29;1.83;;;1.07;;
23814;SDS011;12088;53.078;8.720;2023-03-18T01:41:54;1.60;;;1.50;;
23814;SDS011;12088;53.078;8.720;2023-03-18T01:44:21;0.60;;;0.60;;
23814;SDS011;12088;53.078;8.720;2023-03-18T01:46:49;1.30;;;1.30;;
23814;SDS011;12088;53.078;8.720;2023-03-18T01:51:45;0.60;;;0.60;;
23814;SDS011;12088;53.078;8.720;2023-03-18T01:54:16;1.20;;;1.10;;
23814;SDS011;12088;53.078;8.720;2023-03-18T01:56:43;0.80;;;0.80;;
23814;SDS011;12088;53.078;8.720;2023-03-18T01:59:10;0.60;;;0.60;;
23814;SDS011;12088;53.078;8.720;2023-03-18T02:01:43;2.53;;;2.10;;
23814;SDS011;12088;53.078;8.720;2023-03-18T02:04:18;0.87;;;0.87;;
23814;SDS011;12088;53.078;8.720;2023-03-18T02:06:45;1.70;;;1.17;;
23814;SDS011;12088;53.078;8.720;2023-03-18T02:09:11;1.10;;;0.90;;
23814;SDS011;12088;53.078;8.720;2023-03-18T02:11:39;1.37;;;1.27;;
23814;SDS011;12088;53.078;8.720;2023-03-18T02:14:08;0.60;;;0.60;;
23814;SDS011;12088;53.078;8.720;2023-03-18T02:16:40;0.50;;;0.50;;
23814;SDS011;12088;53.078;8.720;2023-03-18T02:20:01;1.20;;;1.10;;
23814;SDS011;12088;53.078;8.720;2023-03-18T02:25:08;0.53;;;0.50;;
23814;SDS011;12088;53.078;8.720;2023-03-18T02:27:38;0.47;;;0.47;;
23814;SDS011;12088;53.078;8.720;2023-03-18T02:30:10;0.67;;;0.67;;
23814;SDS011;12088;53.078;8.720;2023-03-18T02:32:39;0.40;;;0.40;;
23814;SDS011;12088;53.078;8.720;2023-03-18T02:35:08;0.60;;;0.60;;
23814;SDS011;12088;53.078;8.720;2023-03-18T02:37:34;2.77;;;1.63;;
23814;SDS011;12088;53.078;8.720;2023-03-18T02:40:14;0.70;;;0.70;;
23814;SDS011;12088;53.078;8.720;2023-03-18T02:42:39;0.63;;;0.63;;
23814;SDS011;12088;53.078;8.720;2023-03-18T02:45:06;0.50;;;0.50;;
23814;SDS011;12088;53.078;8.720;2023-03-18T02:47:41;1.20;;;1.10;;
23814;SDS011;12088;53.078;8.720;2023-03-18T02:50:08;1.03;;;1.03;;
23814;SDS011;12088;53.078;8.720;2023-03-18T02:52:34;1.70;;;1.27;;
23814;SDS011;12088;53.078;8.720;2023-03-18T02:55:00;0.97;;;0.73;;
23814;SDS011;12088;53.078;8.720;2023-03-18T02:57:25;0.77;;;0.57;;
23814;SDS011;12088;53.078;8.720;2023-03-18T02:59:51;0.63;;;0.63;;
23814;SDS011;12088;53.078;8.720;2023-03-18T03:02:16;0.70;;;0.70;;
23814;SDS011;12088;53.078;8.720;2023-03-18T03:04:42;1.27;;;1.17;;
23814;SDS011;12088;53.078;8.720;2023-03-18T03:07:08;1.90;;;1.23;;
23814;SDS011;12088;53.078;8.720;2023-03-18T03:09:33;0.70;;;0.70;;
23814;SDS011;12088;53.078;8.720;2023-03-18T03:11:59;2.30;;;1.17;;
23814;SDS011;12088;53.078;8.720;2023-03-18T03:14:24;0.97;;;0.90;;
23814;SDS011;12088;53.078;8.720;2023-03-18T03:16:50;0.93;;;0.93;;
23814;SDS011;12088;53.078;8.720;2023-03-18T03:19:15;2.77;;;1.77;;
23814;SDS011;12088;53.078;8.720;2023-03-18T03:21:41;0.43;;;0.43;;
23814;SDS011;12088;53.078;8.720;2023-03-18T03:24:07;1.97;;;1.80;;
23814;SDS011;12088;53.078;8.720;2023-03-18T03:26:34;0.90;;;0.90;;
23814;SDS011;12088;53.078;8.720;2023-03-18T03:29:00;1.50;;;1.00;;
23814;SDS011;12088;53.078;8.720;2023-03-18T03:31:26;1.07;;;1.00;;
23814;SDS011;12088;53.078;8.720;2023-03-18T03:33:52;1.00;;;1.00;;
23814;SDS011;12088;53.078;8.720;2023-03-18T03:36:17;1.40;;;1.10;;
23814;SDS011;12088;53.078;8.720;2023-03-18T03:38:43;0.90;;;0.90;;
23814;SDS011;12088;53.078;8.720;2023-03-18T03:41:09;0.87;;;0.80;;
23814;SDS011;12088;53.078;8.720;2023-03-18T03:43:36;1.37;;;1.27;;
23814;SDS011;12088;53.078;8.720;2023-03-18T03:46:02;1.67;;;1.57;;
23814;SDS011;12088;53.078;8.720;2023-03-18T03:48:29;9.53;;;2.03;;
23814;SDS011;12088;53.078;8.720;2023-03-18T03:50:55;0.87;;;0.87;;
23814;SDS011;12088;53.078;8.720;2023-03-18T03:53:21;1.67;;;1.00;;
23814;SDS011;12088;53.078;8.720;2023-03-18T03:55:47;0.67;;;0.67;;
23814;SDS011;12088;53.078;8.720;2023-03-18T03:58:12;8.20;;;2.37;;
23814;SDS011;12088;53.078;8.720;2023-03-18T04:00:38;0.90;;;0.90;;
23814;SDS011;12088;53.078;8.720;2023-03-18T04:03:03;1.57;;;1.47;;
23814;SDS011;12088;53.078;8.720;2023-03-18T04:05:29;1.40;;;1.17;;
23814;SDS011;12088;53.078;8.720;2023-03-18T04:07:55;1.50;;;1.10;;
23814;SDS011;12088;53.078;8.720;2023-03-18T04:10:23;1.30;;;1.23;;
23814;SDS011;12088;53.078;8.720;2023-03-18T04:12:50;4.53;;;1.70;;
23814;SDS011;12088;53.078;8.720;2023-03-18T04:15:17;1.30;;;1.00;;
23814;SDS011;12088;53.078;8.720;2023-03-18T04:17:44;1.87;;;1.77;;
23814;SDS011;12088;53.078;8.720;2023-03-18T04:20:10;1.53;;;1.43;;
23814;SDS011;12088;53.078;8.720;2023-03-18T04:22:36;1.17;;;1.17;;
23814;SDS011;12088;53.078;8.720;2023-03-18T04:25:03;1.50;;;1.23;;
23814;SDS011;12088;53.078;8.720;2023-03-18T04:27:29;1.13;;;0.90;;
23814;SDS011;12088;53.078;8.720;2023-03-18T04:29:54;1.03;;;0.93;;
23814;SDS011;12088;53.078;8.720;2023-03-18T04:32:20;1.90;;;1.10;;
23814;SDS011;12088;53.078;8.720;2023-03-18T04:34:46;2.33;;;1.17;;
23814;SDS011;12088;53.078;8.720;2023-03-18T04:37:11;0.70;;;0.70;;
23814;SDS011;12088;53.078;8.720;2023-03-18T04:39:38;0.83;;;0.83;;
23814;SDS011;12088;53.078;8.720;2023-03-18T04:42:04;1.43;;;1.33;;
23814;SDS011;12088;53.078;8.720;2023-03-18T04:44:30;1.57;;;1.47;;
23814;SDS011;12088;53.078;8.720;2023-03-18T04:46:56;1.00;;;0.97;;
23814;SDS011;12088;53.078;8.720;2023-03-18T04:49:21;3.67;;;1.63;;
23814;SDS011;12088;53.078;8.720;2023-03-18T04:51:48;1.20;;;1.13;;
23814;SDS011;12088;53.078;8.720;2023-03-18T04:54:14;1.40;;;1.30;;
23814;SDS011;12088;53.078;8.720;2023-03-18T04:56:39;1.03;;;1.03;;
23814;SDS011;12088;53.078;8.720;2023-03-18T04:59:05;2.03;;;1.73;;
23814;SDS011;12088;53.078;8.720;2023-03-18T05:01:31;1.77;;;1.33;;
23814;SDS011;12088;53.078;8.720;2023-03-18T05:03:57;1.17;;;1.03;;
23814;SDS011;12088;53.078;8.720;2023-03-18T05:06:24;4.73;;;2.93;;
23814;SDS011;12088;53.078;8.720;2023-03-18T05:08:51;1.37;;;1.03;;
23814;SDS011;12088;53.078;8.720;2023-03-18T05:11:17;3.23;;;2.37;;
23814;SDS011;12088;53.078;8.720;2023-03-18T05:13:44;1.37;;;1.27;;
23814;SDS011;12088;53.078;8.720;2023-03-18T05:16:09;6.53;;;1.87;;
23814;SDS011;12088;53.078;8.720;2023-03-18T05:18:35;1.10;;;1.10;;
23814;SDS011;12088;53.078;8.720;2023-03-18T05:21:01;0.93;;;0.93;;
23814;SDS011;12088;53.078;8.720;2023-03-18T05:23:27;1.50;;;1.40;;
23814;SDS011;12088;53.078;8.720;2023-03-18T05:25:53;1.27;;;1.17;;
23814;SDS011;12088;53.078;8.720;2023-03-18T05:28:18;1.57;;;1.20;;
23814;SDS011;12088;53.078;8.720;2023-03-18T05:30:45;1.53;;;1.40;;
23814;SDS011;12088;53.078;8.720;2023-03-18T05:33:11;1.53;;;1.43;;
23814;SDS011;12088;53.078;8.720;2023-03-18T05:35:37;1.10;;;1.10;;
23814;SDS011;12088;53.078;8.720;2023-03-18T05:38:03;2.33;;;1.70;;
23814;SDS011;12088;53.078;8.720;2023-03-18T05:40:28;1.90;;;1.00;;
23814;SDS011;12088;53.078;8.720;2023-03-18T05:42:54;2.10;;;1.90;;
23814;SDS011;12088;53.078;8.720;2023-03-18T05:45:19;1.27;;;1.17;;
23814;SDS011;12088;53.078;8.720;2023-03-18T05:47:45;0.87;;;0.87;;
23814;SDS011;12088;53.078;8.720;2023-03-18T05:50:10;0.97;;;0.83;;
23814;SDS011;12088;53.078;8.720;2023-03-18T05:52:37;0.50;;;0.50;;
23814;SDS011;12088;53.078;8.720;2023-03-18T05:55:03;1.60;;;1.50;;
23814;SDS011;12088;53.078;8.720;2023-03-18T05:57:29;1.17;;;1.10;;
23814;SDS011;12088;53.078;8.720;2023-03-18T05:59:54;2.33;;;1.33;;
23814;SDS011;12088;53.078;8.720;2023-03-18T06:02:20;1.77;;;1.67;;
23814;SDS011;12088;53.078;8.720;2023-03-18T06:04:45;11.63;;;2.80;;
23814;SDS011;12088;53.078;8.720;2023-03-18T06:07:12;2.57;;;1.97;;
23814;SDS011;12088;53.078;8.720;2023-03-18T06:09:37;3.90;;;2.07;;
23814;SDS011;12088;53.078;8.720;2023-03-18T06:12:03;6.23;;;1.50;;
23814;SDS011;12088;53.078;8.720;2023-03-18T06:14:29;1.57;;;1.43;;
23814;SDS011;12088;53.078;8.720;2023-03-18T06:16:55;1.47;;;1.37;;
23814;SDS011;12088;53.078;8.720;2023-03-18T06:19:21;0.80;;;0.80;;
23814;SDS011;12088;53.078;8.720;2023-03-18T06:21:47;0.73;;;0.73;;
23814;SDS011;12088;53.078;8.720;2023-03-18T06:24:13;1.67;;;1.10;;
23814;SDS011;12088;53.078;8.720;2023-03-18T06:26:39;2.90;;;1.70;;
23814;SDS011;12088;53.078;8.720;2023-03-18T06:29:05;0.97;;;0.97;;
23814;SDS011;12088;53.078;8.720;2023-03-18T06:31:32;1.27;;;1.23;;
23814;SDS011;12088;53.078;8.720;2023-03-18T06:33:59;1.17;;;1.17;;
23814;SDS011;12088;53.078;8.720;2023-03-18T06:36:24;1.33;;;1.27;;
23814;SDS011;12088;53.078;8.720;2023-03-18T06:38:50;1.57;;;1.47;;
23814;SDS011;12088;53.078;8.720;2023-03-18T06:41:16;2.57;;;1.80;;
23814;SDS011;12088;53.078;8.720;2023-03-18T06:43:42;1.10;;;1.00;;
23814;SDS011;12088;53.078;8.720;2023-03-18T06:46:08;2.93;;;1.43;;
23814;SDS011;12088;53.078;8.720;2023-03-18T06:48:34;2.30;;;1.63;;
23814;SDS011;12088;53.078;8.720;2023-03-18T06:51:04;3.10;;;2.13;;
23814;SDS011;12088;53.078;8.720;2023-03-18T06:53:30;1.60;;;1.50;;
23814;SDS011;12088;53.078;8.720;2023-03-18T06:55:55;4.00;;;2.30;;
23814;SDS011;12088;53.078;8.720;2023-03-18T06:58:21;1.93;;;1.83;;
23814;SDS011;12088;53.078;8.720;2023-03-18T07:00:46;1.17;;;1.13;;
23814;SDS011;12088;53.078;8.720;2023-03-18T07:03:12;1.00;;;1.00;;
23814;SDS011;12088;53.078;8.720;2023-03-18T07:05:40;1.40;;;1.30;;
23814;SDS011;12088;53.078;8.720;2023-03-18T07:08:06;3.27;;;3.00;;
23814;SDS011;12088;53.078;8.720;2023-03-18T07:10:33;2.77;;;1.87;;
23814;SDS011;12088;53.078;8.720;2023-03-18T07:12:58;1.27;;;1.27;;
23814;SDS011;12088;53.078;8.720;2023-03-18T07:15:24;1.63;;;1.53;;
23814;SDS011;12088;53.078;8.720;2023-03-18T07:17:50;1.13;;;1.13;;
23814;SDS011;12088;53.078;8.720;2023-03-18T07:20:19;4.03;;;1.93;;
23814;SDS011;12088;53.078;8.720;2023-03-18T07:22:46;1.80;;;1.57;;
23814;SDS011;12088;53.078;8.720;2023-03-18T07:25:12;3.27;;;1.77;;
23814;SDS011;12088;53.078;8.720;2023-03-18T07:27:38;2.43;;;1.80;;
23814;SDS011;12088;53.078;8.720;2023-03-18T07:30:05;2.40;;;2.10;;
23814;SDS011;12088;53.078;8.720;2023-03-18T07:32:33;3.00;;;1.37;;
23814;SDS011;12088;53.078;8.720;2023-03-18T07:35:00;1.57;;;1.47;;
23814;SDS011;12088;53.078;8.720;2023-03-18T07:37:28;1.73;;;1.63;;
23814;SDS011;12088;53.078;8.720;2023-03-18T07:39:54;1.83;;;1.60;;
23814;SDS011;12088;53.078;8.720;2023-03-18T07:42:20;1.67;;;1.57;;
23814;SDS011;12088;53.078;8.720;2023-03-18T07:44:45;2.23;;;1.27;;
23814;SDS011;12088;53.078;8.720;2023-03-18T07:47:11;0.90;;;0.90;;
23814;SDS011;12088;53.078;8.720;2023-03-18T07:49:38;2.83;;;2.30;;
23814;SDS011;12088;53.078;8.720;2023-03-18T07:52:04;2.07;;;1.63;;
23814;SDS011;12088;53.078;8.720;2023-03-18T07:54:29;1.07;;;1.07;;
23814;SDS011;12088;53.078;8.720;2023-03-18T07:56:55;1.27;;;1.17;;
23814;SDS011;12088;53.078;8.720;2023-03-18T07:59:20;1.97;;;1.87;;
23814;SDS011;12088;53.078;8.720;2023-03-18T08:01:46;2.27;;;2.03;;
23814;SDS011;12088;53.078;8.720;2023-03-18T08:04:12;4.33;;;3.13;;
23814;SDS011;12088;53.078;8.720;2023-03-18T08:06:38;1.60;;;1.50;;
23814;SDS011;12088;53.078;8.720;2023-03-18T08:09:04;2.13;;;2.03;;
23814;SDS011;12088;53.078;8.720;2023-03-18T08:11:30;2.37;;;2.17;;
23814;SDS011;12088;53.078;8.720;2023-03-18T08:13:57;2.10;;;2.00;;
23814;SDS011;12088;53.078;8.720;2023-03-18T08:16:23;2.47;;;1.77;;
23814;SDS011;12088;53.078;8.720;2023-03-18T08:18:49;4.37;;;1.87;;
23814;SDS011;12088;53.078;8.720;2023-03-18T08:21:15;1.87;;;1.70;;
23814;SDS011;12088;53.078;8.720;2023-03-18T08:23:40;1.27;;;1.27;;
23814;SDS011;12088;53.078;8.720;2023-03-18T08:26:06;4.27;;;2.77;;
23814;SDS011;12088;53.078;8.720;2023-03-18T08:28:32;4.17;;;2.00;;
23814;SDS011;12088;53.078;8.720;2023-03-18T08:30:58;4.47;;;2.07;;
23814;SDS011;12088;53.078;8.720;2023-03-18T08:33:24;3.13;;;2.47;;
23814;SDS011;12088;53.078;8.720;2023-03-18T08:35:52;3.40;;;1.90;;
23814;SDS011;12088;53.078;8.720;2023-03-18T08:38:18;4.97;;;3.77;;
23814;SDS011;12088;53.078;8.720;2023-03-18T08:40:45;2.53;;;2.07;;
23814;SDS011;12088;53.078;8.720;2023-03-18T08:43:11;3.27;;;1.87;;
23814;SDS011;12088;53.078;8.720;2023-03-18T08:45:37;3.30;;;2.33;;
23814;SDS011;12088;53.078;8.720;2023-03-18T08:48:03;1.43;;;1.10;;
23814;SDS011;12088;53.078;8.720;2023-03-18T08:50:28;3.73;;;3.03;;
23814;SDS011;12088;53.078;8.720;2023-03-18T08:52:54;1.87;;;1.70;;
23814;SDS011;12088;53.078;8.720;2023-03-18T08:55:22;2.73;;;1.97;;
23814;SDS011;12088;53.078;8.720;2023-03-18T08:57:52;1.53;;;1.43;;
23814;SDS011;12088;53.078;8.720;2023-03-18T09:00:18;2.70;;;2.50;;
23814;SDS011;12088;53.078;8.720;2023-03-18T09:02:45;1.77;;;1.67;;
23814;SDS011;12088;53.078;8.720;2023-03-18T09:05:11;3.30;;;2.03;;
23814;SDS011;12088;53.078;8.720;2023-03-18T09:07:37;2.23;;;2.03;;
23814;SDS011;12088;53.078;8.720;2023-03-18T09:10:03;2.70;;;2.50;;
23814;SDS011;12088;53.078;8.720;2023-03-18T09:12:28;2.30;;;2.10;;
23814;SDS011;12088;53.078;8.720;2023-03-18T09:14:54;19.43;;;3.63;;
23814;SDS011;12088;53.078;8.720;2023-03-18T09:17:20;4.10;;;2.70;;
23814;SDS011;12088;53.078;8.720;2023-03-18T09:19:47;2.67;;;2.00;;
23814;SDS011;12088;53.078;8.720;2023-03-18T09:22:12;2.70;;;2.50;;
23814;SDS011;12088;53.078;8.720;2023-03-18T09:24:38;1.63;;;1.43;;
23814;SDS011;12088;53.078;8.720;2023-03-18T09:27:04;3.07;;;2.43;;
23814;SDS011;12088;53.078;8.720;2023-03-18T09:29:30;4.63;;;3.37;;
23814;SDS011;12088;53.078;8.720;2023-03-18T09:31:56;3.57;;;2.50;;
23814;SDS011;12088;53.078;8.720;2023-03-18T09:34:21;13.30;;;3.30;;
23814;SDS011;12088;53.078;8.720;2023-03-18T09:36:47;4.80;;;2.63;;
23814;SDS011;12088;53.078;8.720;2023-03-18T09:39:15;9.17;;;2.40;;
23814;SDS011;12088;53.078;8.720;2023-03-18T09:44:37;3.17;;;2.73;;
23814;SDS011;12088;53.078;8.720;2023-03-18T09:47:06;4.20;;;3.23;;
23814;SDS011;12088;53.078;8.720;2023-03-18T09:50:08;5.60;;;3.33;;
23814;SDS011;12088;53.078;8.720;2023-03-18T09:52:43;5.07;;;3.35;;
23814;SDS011;12088;53.078;8.720;2023-03-18T09:57:49;4.22;;;3.00;;
23814;SDS011;12088;53.078;8.720;2023-03-18T10:00:36;5.40;;;2.92;;
23814;SDS011;12088;53.078;8.720;2023-03-18T10:03:09;3.33;;;2.85;;
23814;SDS011;12088;53.078;8.720;2023-03-18T10:08:32;5.65;;;2.95;;
23814;SDS011;12088;53.078;8.720;2023-03-18T10:11:06;5.32;;;3.22;;
23814;SDS011;12088;53.078;8.720;2023-03-18T10:13:58;4.15;;;3.17;;
23814;SDS011;12088;53.078;8.720;2023-03-18T10:20:10;3.83;;;2.88;;
23814;SDS011;12088;53.078;8.720;2023-03-18T10:25:57;5.23;;;2.97;;
23814;SDS011;12088;53.078;8.720;2023-03-18T10:28:39;3.63;;;3.10;;
23814;SDS011;12088;53.078;8.720;2023-03-18T10:31:25;4.60;;;3.10;;
23814;SDS011;12088;53.078;8.720;2023-03-18T10:34:20;5.93;;;3.40;;
23814;SDS011;12088;53.078;8.720;2023-03-18T10:39:29;5.05;;;3.33;;
23814;SDS011;12088;53.078;8.720;2023-03-18T10:41:57;9.98;;;3.50;;
23814;SDS011;12088;53.078;8.720;2023-03-18T10:44:34;3.40;;;2.55;;
23814;SDS011;12088;53.078;8.720;2023-03-18T10:47:05;6.93;;;3.30;;
23814;SDS011;12088;53.078;8.720;2023-03-18T10:49:43;4.87;;;3.63;;
23814;SDS011;12088;53.078;8.720;2023-03-18T10:52:52;6.10;;;2.90;;
23814;SDS011;12088;53.078;8.720;2023-03-18T10:55:24;4.67;;;3.47;;
23814;SDS011;12088;53.078;8.720;2023-03-18T10:57:59;7.97;;;3.17;;
23814;SDS011;12088;53.078;8.720;2023-03-18T11:00:37;3.03;;;2.50;;
23814;SDS011;12088;53.078;8.720;2023-03-18T11:03:02;4.90;;;3.47;;
23814;SDS011;12088;53.078;8.720;2023-03-18T11:05:30;4.17;;;2.90;;
23814;SDS011;12088;53.078;8.720;2023-03-18T11:08:00;11.53;;;3.00;;
23814;SDS011;12088;53.078;8.720;2023-03-18T11:10:32;6.13;;;4.10;;
23814;SDS011;12088;53.078;8.720;2023-03-18T11:13:02;7.33;;;3.73;;
23814;SDS011;12088;53.078;8.720;2023-03-18T11:15:28;3.83;;;2.50;;
23814;SDS011;12088;53.078;8.720;2023-03-18T11:18:00;4.27;;;2.60;;
23814;SDS011;12088;53.078;8.720;2023-03-18T11:20:31;5.67;;;3.23;;
23814;SDS011;12088;53.078;8.720;2023-03-18T11:23:02;4.90;;;4.20;;
23814;SDS011;12088;53.078;8.720;2023-03-18T11:25:36;7.17;;;4.60;;
23814;SDS011;12088;53.078;8.720;2023-03-18T11:28:03;3.47;;;3.17;;
23814;SDS011;12088;53.078;8.720;2023-03-18T11:30:34;3.70;;;3.40;;
23814;SDS011;12088;53.078;8.720;2023-03-18T11:35:39;7.63;;;3.73;;
23814;SDS011;12088;53.078;8.720;2023-03-18T11:38:19;5.97;;;4.23;;
23814;SDS011;12088;53.078;8.720;2023-03-18T11:40:51;6.97;;;3.55;;
23814;SDS011;12088;53.078;8.720;2023-03-18T11:43:18;7.93;;;3.85;;
23814;SDS011;12088;53.078;8.720;2023-03-18T11:45:52;5.18;;;2.80;;
23814;SDS011;12088;53.078;8.720;2023-03-18T11:48:28;9.43;;;3.78;;
23814;SDS011;12088;53.078;8.720;2023-03-18T11:54:15;5.07;;;4.22;;
23814;SDS011;12088;53.078;8.720;2023-03-18T11:59:29;4.38;;;3.67;;
23814;SDS011;12088;53.078;8.720;2023-03-18T12:02:10;4.68;;;3.08;;
23814;SDS011;12088;53.078;8.720;2023-03-18T12:07:35;3.78;;;2.70;;
23814;SDS011;12088;53.078;8.720;2023-03-18T12:10:18;6.25;;;3.03;;
23814;SDS011;12088;53.078;8.720;2023-03-18T12:16:02;4.35;;;3.03;;
23814;SDS011;12088;53.078;8.720;2023-03-18T12:19:03;6.47;;;3.45;;
23814;SDS011;12088;53.078;8.720;2023-03-18T12:24:41;4.97;;;2.42;;
23814;SDS011;12088;53.078;8.720;2023-03-18T12:30:04;3.50;;;2.15;;
23814;SDS011;12088;53.078;8.720;2023-03-18T12:44:11;3.83;;;2.97;;
23814;SDS011;12088;53.078;8.720;2023-03-18T12:47:15;5.10;;;2.70;;
23814;SDS011;12088;53.078;8.720;2023-03-18T12:49:46;2.45;;;2.05;;
23814;SDS011;12088;53.078;8.720;2023-03-18T12:55:01;2.58;;;1.90;;
23814;SDS011;12088;53.078;8.720;2023-03-18T12:57:41;1.63;;;1.52;;
23814;SDS011;12088;53.078;8.720;2023-03-18T13:00:15;2.30;;;1.88;;
23814;SDS011;12088;53.078;8.720;2023-03-18T13:02:54;2.15;;;1.98;;
23814;SDS011;12088;53.078;8.720;2023-03-18T13:05:33;3.33;;;2.33;;
23814;SDS011;12088;53.078;8.720;2023-03-18T13:08:20;3.53;;;1.95;;
23814;SDS011;12088;53.078;8.720;2023-03-18T13:10:54;2.78;;;1.63;;
23814;SDS011;12088;53.078;8.720;2023-03-18T13:13:29;3.10;;;2.38;;
23814;SDS011;12088;53.078;8.720;2023-03-18T13:15:58;2.40;;;1.90;;
23814;SDS011;12088;53.078;8.720;2023-03-18T13:18:27;4.82;;;2.92;;
23814;SDS011;12088;53.078;8.720;2023-03-18T13:21:04;1.90;;;1.30;;
23814;SDS011;12088;53.078;8.720;2023-03-18T13:29:24;3.05;;;2.10;;
23814;SDS011;12088;53.078;8.720;2023-03-18T13:32:06;1.77;;;1.42;;
23814;SDS011;12088;53.078;8.720;2023-03-18T13:34:50;2.13;;;1.40;;
23814;SDS011;12088;53.078;8.720;2023-03-18T13:40:13;3.20;;;2.00;;
23814;SDS011;12088;53.078;8.720;2023-03-18T13:43:04;1.67;;;1.48;;
23814;SDS011;12088;53.078;8.720;2023-03-18T13:45:38;1.63;;;1.52;;
23814;SDS011;12088;53.078;8.720;2023-03-18T13:48:15;1.92;;;1.65;;
23814;SDS011;12088;53.078;8.720;2023-03-18T13:50:43;3.78;;;1.50;;
23814;SDS011;12088;53.078;8.720;2023-03-18T13:58:28;1.50;;;1.35;;
23814;SDS011;12088;53.078;8.720;2023-03-18T14:13:53;2.25;;;1.40;;
23814;SDS011;12088;53.078;8.720;2023-03-18T14:16:27;1.60;;;1.40;;
23814;SDS011;12088;53.078;8.720;2023-03-18T14:21:45;1.38;;;1.20;;
23814;SDS011;12088;53.078;8.720;2023-03-18T14:26:39;1.65;;;1.55;;
23814;SDS011;12088;53.078;8.720;2023-03-18T14:31:48;3.95;;;1.40;;
23814;SDS011;12088;53.078;8.720;2023-03-18T14:39:23;1.52;;;1.42;;
23814;SDS011;12088;53.078;8.720;2023-03-18T14:42:15;1.20;;;1.20;;
23814;SDS011;12088;53.078;8.720;2023-03-18T14:44:52;1.13;;;1.10;;
23814;SDS011;12088;53.078;8.720;2023-03-18T14:47:24;2.25;;;1.63;;
23814;SDS011;12088;53.078;8.720;2023-03-18T14:49:59;2.15;;;1.92;;
23814;SDS011;12088;53.078;8.720;2023-03-18T14:52:29;2.15;;;1.40;;
23814;SDS011;12088;53.078;8.720;2023-03-18T14:54:58;1.25;;;1.15;;
23814;SDS011;12088;53.078;8.720;2023-03-18T14:57:29;1.83;;;1.50;;
23814;SDS011;12088;53.078;8.720;2023-03-18T14:59:57;1.92;;;1.52;;
23814;SDS011;12088;53.078;8.720;2023-03-18T15:02:27;1.80;;;1.70;;
23814;SDS011;12088;53.078;8.720;2023-03-18T15:04:57;7.38;;;2.03;;
23814;SDS011;12088;53.078;8.720;2023-03-18T15:07:28;1.85;;;1.70;;
23814;SDS011;12088;53.078;8.720;2023-03-18T15:12:35;2.10;;;1.88;;
23814;SDS011;12088;53.078;8.720;2023-03-18T15:15:01;1.95;;;1.70;;
23814;SDS011;12088;53.078;8.720;2023-03-18T15:17:28;4.88;;;2.15;;
23814;SDS011;12088;53.078;8.720;2023-03-18T15:19:59;6.28;;;2.78;;
23814;SDS011;12088;53.078;8.720;2023-03-18T15:22:26;3.97;;;2.47;;
23814;SDS011;12088;53.078;8.720;2023-03-18T15:24:56;1.50;;;1.27;;
23814;SDS011;12088;53.078;8.720;2023-03-18T15:27:29;1.95;;;1.73;;
23814;SDS011;12088;53.078;8.720;2023-03-18T15:29:57;2.80;;;1.38;;
23814;SDS011;12088;53.078;8.720;2023-03-18T15:32:29;1.38;;;1.27;;
23814;SDS011;12088;53.078;8.720;2023-03-18T15:37:45;1.83;;;1.55;;
23814;SDS011;12088;53.078;8.720;2023-03-18T15:40:31;1.55;;;1.45;;
23814;SDS011;12088;53.078;8.720;2023-03-18T15:45:35;1.70;;;1.60;;
23814;SDS011;12088;53.078;8.720;2023-03-18T15:48:15;2.15;;;1.95;;
23814;SDS011;12088;53.078;8.720;2023-03-18T15:50:52;1.90;;;1.73;;
23814;SDS011;12088;53.078;8.720;2023-03-18T15:55:54;3.08;;;1.98;;
23814;SDS011;12088;53.078;8.720;2023-03-18T16:00:49;2.10;;;1.65;;
23814;SDS011;12088;53.078;8.720;2023-03-18T16:03:17;2.05;;;1.25;;
23814;SDS011;12088;53.078;8.720;2023-03-18T16:05:46;2.40;;;1.45;;
23814;SDS011;12088;53.078;8.720;2023-03-18T16:08:11;2.00;;;1.75;;
23814;SDS011;12088;53.078;8.720;2023-03-18T16:10:38;2.38;;;1.88;;
23814;SDS011;12088;53.078;8.720;2023-03-18T16:13:05;1.33;;;1.23;;
23814;SDS011;12088;53.078;8.720;2023-03-18T16:15:31;2.17;;;1.73;;
23814;SDS011;12088;53.078;8.720;2023-03-18T16:17:56;2.03;;;1.58;;
23814;SDS011;12088;53.078;8.720;2023-03-18T16:20:26;1.92;;;1.83;;
23814;SDS011;12088;53.078;8.720;2023-03-18T16:22:53;2.83;;;2.03;;
23814;SDS011;12088;53.078;8.720;2023-03-18T16:25:19;2.78;;;1.88;;
23814;SDS011;12088;53.078;8.720;2023-03-18T16:27:47;2.70;;;2.23;;
23814;SDS011;12088;53.078;8.720;2023-03-18T16:30:35;4.03;;;2.23;;
23814;SDS011;12088;53.078;8.720;2023-03-18T16:33:04;1.37;;;1.20;;
23814;SDS011;12088;53.078;8.720;2023-03-18T16:35:35;2.65;;;1.77;;
23814;SDS011;12088;53.078;8.720;2023-03-18T16:38:02;3.53;;;2.10;;
23814;SDS011;12088;53.078;8.720;2023-03-18T16:40:28;1.93;;;1.60;;
23814;SDS011;12088;53.078;8.720;2023-03-18T16:42:55;2.50;;;2.23;;
23814;SDS011;12088;53.078;8.720;2023-03-18T16:45:27;1.93;;;1.77;;
23814;SDS011;12088;53.078;8.720;2023-03-18T16:47:56;3.63;;;1.77;;
23814;SDS011;12088;53.078;8.720;2023-03-18T16:50:26;2.83;;;1.83;;